createdAt,value
2023-01-25T00:00:05.664Z,54.80
2023-01-25T00:02:32.604Z,56.67
2023-01-25T00:04:59.461Z,56.53
2023-01-25T00:07:26.177Z,59.60
2023-01-25T00:09:52.876Z,40.78
2023-01-25T00:12:19.718Z,54.80
2023-01-25T00:14:46.465Z,40.63
2023-01-25T00:17:13.209Z,43.78
2023-01-25T00:19:39.804Z,44.25
2023-01-25T00:22:06.927Z,53.80
2023-01-25T00:24:33.586Z,58.63
2023-01-25T00:27:00.276Z,65.43
2023-01-25T00:29:26.938Z,36.30
2023-01-25T00:32:05.845Z,53.78
2023-01-25T00:34:45.562Z,16.90
2023-01-25T00:37:18.341Z,64.47
2023-01-25T00:39:45.232Z,63.90
2023-01-25T00:42:12.984Z,41.92
2023-01-25T00:44:40.062Z,56.00
2023-01-25T00:47:07.085Z,63.90
2023-01-25T00:49:33.869Z,58.58
2023-01-25T00:52:00.725Z,60.70
2023-01-25T00:54:27.503Z,43.63
2023-01-25T00:56:56.457Z,50.75
2023-01-25T00:59:24.148Z,48.72
2023-01-25T01:01:51.205Z,53.13
2023-01-25T01:04:18.614Z,44.38
2023-01-25T01:06:45.634Z,45.15
2023-01-25T01:09:17.212Z,51.13
2023-01-25T01:11:44.177Z,53.63
2023-01-25T01:14:11.479Z,44.55
2023-01-25T01:16:39.041Z,45.90
2023-01-25T01:19:06.124Z,54.22
2023-01-25T01:21:32.902Z,47.42
2023-01-25T01:24:00.066Z,49.63
2023-01-25T01:26:26.946Z,55.30
2023-01-25T01:28:53.629Z,43.15
2023-01-25T01:31:23.447Z,46.17
2023-01-25T01:33:55.233Z,42.85
2023-01-25T01:36:24.277Z,56.92
2023-01-25T01:38:51.048Z,52.90
2023-01-25T01:41:18.273Z,50.63
2023-01-25T01:43:45.402Z,34.38
2023-01-25T01:46:15.401Z,35.00
2023-01-25T01:48:56.437Z,55.65
2023-01-25T01:52:00.707Z,45.00
2023-01-25T01:54:33.460Z,46.10
2023-01-25T01:57:16.331Z,50.63
2023-01-25T02:00:16.336Z,53.72
2023-01-25T02:02:43.063Z,60.15
2023-01-25T02:05:17.404Z,58.38
2023-01-25T02:07:47.029Z,52.38
2023-01-25T02:10:13.803Z,27.85
2023-01-25T02:12:41.187Z,43.00
2023-01-25T02:15:08.790Z,51.90
2023-01-25T02:17:38.721Z,60.13
2023-01-25T02:20:13.885Z,41.55
2023-01-25T02:23:05.740Z,35.78
2023-01-25T02:25:32.460Z,41.20
2023-01-25T02:28:16.795Z,52.53
2023-01-25T02:30:43.872Z,50.70
2023-01-25T02:33:11.145Z,45.40
2023-01-25T02:35:40.280Z,47.90
2023-01-25T02:38:07.996Z,55.40
2023-01-25T02:40:42.986Z,52.33
2023-01-25T02:43:09.639Z,42.05
2023-01-25T02:45:36.430Z,62.53
2023-01-25T02:48:03.097Z,32.35
2023-01-25T02:50:29.967Z,48.03
2023-01-25T02:52:56.723Z,51.15
2023-01-25T02:55:23.396Z,60.60
2023-01-25T02:57:50.058Z,49.85
2023-01-25T03:00:16.974Z,57.95
2023-01-25T03:02:43.789Z,52.08
2023-01-25T03:05:10.665Z,34.03
2023-01-25T03:07:37.449Z,38.38
2023-01-25T03:10:04.524Z,50.33
2023-01-25T03:12:31.116Z,42.08
2023-01-25T03:14:57.761Z,48.88
2023-01-25T03:17:25.284Z,61.67
2023-01-25T03:19:53.876Z,52.92
2023-01-25T03:22:20.635Z,59.10
2023-01-25T03:24:47.356Z,53.45
2023-01-25T03:27:14.296Z,48.30
2023-01-25T03:29:41.756Z,54.70
2023-01-25T03:32:09.051Z,52.33
2023-01-25T03:34:35.935Z,47.70
2023-01-25T03:37:03.467Z,57.13
2023-01-25T03:39:30.091Z,51.10
2023-01-25T03:41:56.782Z,56.40
2023-01-25T03:44:23.576Z,57.92
2023-01-25T03:46:50.189Z,59.47
2023-01-25T03:49:18.408Z,42.67
2023-01-25T03:51:45.091Z,40.10
2023-01-25T03:54:11.737Z,48.53
2023-01-25T03:56:38.850Z,52.15
2023-01-25T03:59:06.332Z,52.25
2023-01-25T04:01:33.195Z,45.53
2023-01-25T04:03:59.834Z,43.92
2023-01-25T04:06:26.605Z,44.38
2023-01-25T04:08:53.300Z,44.97
2023-01-25T04:11:20.088Z,40.13
2023-01-25T04:13:46.744Z,58.53
2023-01-25T04:16:13.517Z,52.50
2023-01-25T04:18:40.747Z,53.10
2023-01-25T04:21:07.629Z,63.22
2023-01-25T04:23:34.367Z,60.45
2023-01-25T04:26:05.199Z,68.00
2023-01-25T04:28:33.300Z,51.85
2023-01-25T04:31:00.092Z,58.00
2023-01-25T04:33:27.190Z,55.50
2023-01-25T04:35:53.997Z,46.20
2023-01-25T04:38:21.193Z,60.42
2023-01-25T04:40:47.839Z,45.55
2023-01-25T04:43:16.451Z,42.17
2023-01-25T04:45:43.298Z,40.80
2023-01-25T04:48:11.500Z,60.33
2023-01-25T04:50:39.657Z,46.08
2023-01-25T04:53:07.267Z,56.97
2023-01-25T04:55:34.302Z,41.30
2023-01-25T04:58:01.490Z,49.40
2023-01-25T05:00:29.462Z,52.65
2023-01-25T05:02:56.313Z,51.58
2023-01-25T05:05:23.088Z,57.25
2023-01-25T05:07:49.721Z,58.42
2023-01-25T05:10:16.375Z,42.25
2023-01-25T05:12:43.821Z,51.00
2023-01-25T05:15:11.536Z,58.33
2023-01-25T05:17:38.583Z,50.63
2023-01-25T05:20:05.581Z,61.95
2023-01-25T05:22:32.480Z,62.78
2023-01-25T05:24:59.363Z,58.28
2023-01-25T05:27:27.377Z,60.05
2023-01-25T05:29:55.172Z,45.22
2023-01-25T05:32:23.481Z,67.10
2023-01-25T05:34:50.624Z,55.25
2023-01-25T05:37:19.631Z,56.75
2023-01-25T05:39:46.249Z,58.53
2023-01-25T05:42:16.572Z,49.40
2023-01-25T05:44:46.075Z,54.35
2023-01-25T05:47:16.103Z,62.40
2023-01-25T05:49:43.073Z,56.92
2023-01-25T05:52:17.028Z,60.85
2023-01-25T05:54:44.494Z,48.00
2023-01-25T05:57:13.353Z,54.13
2023-01-25T05:59:40.036Z,69.90
2023-01-25T06:02:06.953Z,47.50
2023-01-25T06:04:33.837Z,61.40
2023-01-25T06:07:00.614Z,61.63
2023-01-25T06:09:27.486Z,54.17
2023-01-25T06:11:54.161Z,36.72
2023-01-25T06:14:20.921Z,67.32
2023-01-25T06:16:47.732Z,60.17
2023-01-25T06:19:14.630Z,60.85
2023-01-25T06:21:41.353Z,67.93
2023-01-25T06:24:08.384Z,67.35
2023-01-25T06:26:35.123Z,68.32
2023-01-25T06:29:01.937Z,52.78
2023-01-25T06:31:28.665Z,51.78
2023-01-25T06:33:55.492Z,66.15
2023-01-25T06:36:22.760Z,54.92
2023-01-25T06:38:53.107Z,61.88
2023-01-25T06:41:20.224Z,35.05
2023-01-25T06:43:47.991Z,62.83
2023-01-25T06:46:14.892Z,50.03
2023-01-25T06:48:42.913Z,54.60
2023-01-25T06:51:12.476Z,58.55
2023-01-25T06:53:41.684Z,51.72
2023-01-25T06:56:12.459Z,63.10
2023-01-25T06:58:39.834Z,73.53
2023-01-25T07:01:13.877Z,61.05
2023-01-25T07:03:41.279Z,64.35
2023-01-25T07:06:10.515Z,63.78
2023-01-25T07:08:37.899Z,65.53
2023-01-25T07:11:07.035Z,64.20
2023-01-25T07:13:34.734Z,59.33
2023-01-25T07:16:04.810Z,51.63
2023-01-25T07:18:33.172Z,69.28
2023-01-25T07:21:29.601Z,53.10
2023-01-25T07:24:04.251Z,63.28
2023-01-25T07:26:31.826Z,58.00
2023-01-25T07:28:59.518Z,37.13
2023-01-25T07:31:26.405Z,64.30
2023-01-25T07:33:58.240Z,63.88
2023-01-25T07:36:26.116Z,68.22
2023-01-25T07:38:57.955Z,31.40
2023-01-25T07:41:25.631Z,32.42
2023-01-25T07:43:52.637Z,73.15
2023-01-25T07:46:19.606Z,49.88
2023-01-25T07:48:49.017Z,63.72
2023-01-25T07:51:37.860Z,63.75
2023-01-25T07:54:05.379Z,56.70
2023-01-25T07:56:37.816Z,58.03
2023-01-25T07:59:04.765Z,64.28
2023-01-25T08:01:34.627Z,70.47
2023-01-25T08:04:02.931Z,52.67
2023-01-25T08:06:35.909Z,58.67
2023-01-25T08:09:15.243Z,65.78
2023-01-25T08:11:42.508Z,54.95
2023-01-25T08:14:09.765Z,71.80
2023-01-25T08:16:36.495Z,26.20
2023-01-25T08:19:04.137Z,72.30
2023-01-25T08:21:33.794Z,83.22
2023-01-25T08:24:03.843Z,72.28
2023-01-25T08:26:30.706Z,50.50
2023-01-25T08:28:58.059Z,65.97
2023-01-25T08:31:28.181Z,67.70
2023-01-25T08:33:56.096Z,73.07
2023-01-25T08:36:28.308Z,73.95
2023-01-25T08:38:57.914Z,55.08
2023-01-25T08:41:25.401Z,76.38
2023-01-25T08:43:54.266Z,77.50
2023-01-25T08:46:22.644Z,76.32
2023-01-25T08:48:55.160Z,61.17
2023-01-25T08:51:22.459Z,72.35
2023-01-25T08:53:49.117Z,70.22
2023-01-25T08:56:17.230Z,67.22
2023-01-25T08:58:47.103Z,60.90
2023-01-25T09:01:15.981Z,64.57
2023-01-25T09:03:45.385Z,39.65
2023-01-25T09:06:13.567Z,31.60
2023-01-25T09:08:41.586Z,65.13
2023-01-25T09:11:13.802Z,61.05
2023-01-25T09:13:44.565Z,57.72
2023-01-25T09:16:16.768Z,52.45
2023-01-25T09:18:44.997Z,71.97
2023-01-25T09:21:14.120Z,37.33
2023-01-25T09:23:51.203Z,61.25
2023-01-25T09:26:25.032Z,36.75
2023-01-25T09:28:53.566Z,54.20
2023-01-25T09:31:23.453Z,68.32
2023-01-25T09:33:52.738Z,72.03
2023-01-25T09:36:20.696Z,42.72
2023-01-25T09:38:47.481Z,57.95
2023-01-25T09:41:42.331Z,43.95
2023-01-25T09:44:29.732Z,56.90
2023-01-25T09:47:00.132Z,39.03
2023-01-25T09:49:50.870Z,80.05
2023-01-25T09:52:30.596Z,49.63
2023-01-25T09:54:58.355Z,64.50
2023-01-25T09:57:33.746Z,78.05
2023-01-25T10:00:14.805Z,49.63
2023-01-25T10:02:58.826Z,68.25
2023-01-25T10:05:30.821Z,55.27
2023-01-25T10:08:21.234Z,40.92
2023-01-25T10:10:52.497Z,58.95
2023-01-25T10:13:23.019Z,69.43
2023-01-25T10:15:59.396Z,49.47
2023-01-25T10:18:46.943Z,24.95
2023-01-25T10:21:23.872Z,63.10
2023-01-25T10:24:28.441Z,50.72
2023-01-25T10:27:10.355Z,55.58
2023-01-25T10:29:39.085Z,72.32
2023-01-25T10:32:19.688Z,95.78
2023-01-25T10:34:56.408Z,72.55
2023-01-25T10:37:32.744Z,67.78
2023-01-25T10:40:12.348Z,60.90
2023-01-25T10:42:48.142Z,77.15
2023-01-25T10:45:16.380Z,64.45
2023-01-25T10:47:47.166Z,73.28
2023-01-25T10:50:55.863Z,56.78
2023-01-25T10:53:28.205Z,67.85
2023-01-25T10:56:17.199Z,46.80
2023-01-25T10:58:47.356Z,69.28
2023-01-25T11:01:29.379Z,66.88
2023-01-25T11:03:56.694Z,36.90
2023-01-25T11:06:35.974Z,75.15
2023-01-25T11:09:22.607Z,51.80
2023-01-25T11:11:56.861Z,45.70
2023-01-25T11:14:28.527Z,56.30
2023-01-25T11:16:57.322Z,62.00
2023-01-25T11:19:28.999Z,57.83
2023-01-25T11:21:57.911Z,51.33
2023-01-25T11:24:29.512Z,55.78
2023-01-25T11:27:14.202Z,48.50
2023-01-25T11:29:41.009Z,45.20
2023-01-25T11:32:21.456Z,56.10
2023-01-25T11:34:50.019Z,55.70
2023-01-25T11:37:54.419Z,61.20
2023-01-25T11:40:33.815Z,49.58
2023-01-25T11:43:12.236Z,56.85
2023-01-25T11:46:16.587Z,47.60
2023-01-25T11:49:21.785Z,58.47
2023-01-25T11:52:03.053Z,73.38
2023-01-25T11:54:44.864Z,79.97
2023-01-25T11:57:33.349Z,80.68
2023-01-25T12:00:26.070Z,61.38
2023-01-25T12:03:11.171Z,69.50
2023-01-25T12:05:53.831Z,55.00
2023-01-25T12:08:40.760Z,56.47
2023-01-25T12:11:40.765Z,59.45
2023-01-25T12:14:25.440Z,71.30
2023-01-25T12:17:20.175Z,38.63
2023-01-25T12:20:20.261Z,55.05
2023-01-25T12:23:29.894Z,63.63
2023-01-25T12:26:32.186Z,48.08
2023-01-25T12:29:44.163Z,53.95
2023-01-25T12:32:28.818Z,64.65
2023-01-25T12:35:31.469Z,65.10
2023-01-25T12:38:09.783Z,56.97
2023-01-25T12:41:06.767Z,66.65
2023-01-25T12:44:19.588Z,54.80
2023-01-25T12:47:31.855Z,55.05
2023-01-25T12:50:25.402Z,40.30
2023-01-25T12:53:00.639Z,67.72
2023-01-25T12:55:30.284Z,71.95
2023-01-25T12:58:17.208Z,58.45
2023-01-25T13:01:14.348Z,38.13
2023-01-25T13:04:07.748Z,77.93
2023-01-25T13:06:49.907Z,61.83
2023-01-25T13:09:24.884Z,53.38
2023-01-25T13:15:02.160Z,66.03
2023-01-25T13:17:43.703Z,63.03
2023-01-25T13:20:41.733Z,60.90
2023-01-25T13:24:02.889Z,72.10
2023-01-25T13:27:00.468Z,53.42
2023-01-25T13:29:39.404Z,65.00
2023-01-25T13:32:21.695Z,59.67
2023-01-25T13:35:00.563Z,62.03
2023-01-25T13:37:36.015Z,55.90
2023-01-25T13:40:31.016Z,67.65
2023-01-25T13:43:30.093Z,47.55
2023-01-25T13:46:08.019Z,64.75
2023-01-25T13:49:14.455Z,71.82
2023-01-25T13:51:48.417Z,61.10
2023-01-25T13:54:31.945Z,47.75
2023-01-25T13:57:12.879Z,49.35
2023-01-25T13:59:54.343Z,55.03
2023-01-25T14:02:30.232Z,56.08
2023-01-25T14:04:58.869Z,68.38
2023-01-25T14:07:44.713Z,60.53
2023-01-25T14:10:28.773Z,51.22
2023-01-25T14:13:36.340Z,46.67
2023-01-25T14:16:23.628Z,54.35
2023-01-25T14:19:24.004Z,63.00
2023-01-25T14:22:19.039Z,78.38
2023-01-25T14:25:06.486Z,58.53
2023-01-25T14:27:53.078Z,59.45
2023-01-25T14:30:27.871Z,71.28
2023-01-25T14:33:30.587Z,34.50
2023-01-25T14:36:50.508Z,50.40
2023-01-25T14:39:28.950Z,57.50
2023-01-25T14:42:05.542Z,55.30
2023-01-25T14:47:33.091Z,46.03
2023-01-25T14:50:34.743Z,58.25
2023-01-25T14:53:25.085Z,85.75
2023-01-25T14:56:08.992Z,83.07
2023-01-25T14:58:59.829Z,82.25
2023-01-25T15:01:39.631Z,79.70
2023-01-25T15:04:16.414Z,73.25
2023-01-25T15:06:58.904Z,49.80
2023-01-25T15:09:47.933Z,89.57
2023-01-25T15:12:33.884Z,84.10
2023-01-25T15:15:19.498Z,92.07
2023-01-25T15:18:04.845Z,77.97
2023-01-25T15:20:44.869Z,58.25
2023-01-25T15:23:29.766Z,86.18
2023-01-25T15:28:40.213Z,116.45
2023-01-25T15:31:29.920Z,87.57
2023-01-25T15:34:01.479Z,110.50
2023-01-25T15:36:33.302Z,98.07
2023-01-25T15:39:06.335Z,116.63
2023-01-25T15:41:32.971Z,117.45
2023-01-25T15:44:01.400Z,87.28
2023-01-25T15:46:30.627Z,20.98
2023-01-25T15:48:57.378Z,55.13
2023-01-25T15:51:24.170Z,78.32
2023-01-25T15:53:50.918Z,57.17
2023-01-25T15:56:32.769Z,58.28
2023-01-25T15:59:05.217Z,68.18
2023-01-25T16:01:32.002Z,103.40
2023-01-25T16:04:00.041Z,96.72
2023-01-25T16:06:52.317Z,59.70
2023-01-25T16:09:20.304Z,104.85
2023-01-25T16:11:55.918Z,62.42
2023-01-25T16:14:28.888Z,91.88
2023-01-25T16:16:57.967Z,70.00
2023-01-25T16:19:25.250Z,103.57
2023-01-25T16:21:52.405Z,101.68
2023-01-25T16:24:19.181Z,76.07
2023-01-25T16:26:53.140Z,112.80
2023-01-25T16:29:20.123Z,132.48
2023-01-25T16:31:47.032Z,82.10
2023-01-25T16:34:13.734Z,55.63
2023-01-25T16:36:40.551Z,130.93
2023-01-25T16:39:22.297Z,70.43
2023-01-25T16:41:49.813Z,131.48
2023-01-25T16:44:16.626Z,128.90
2023-01-25T16:46:43.492Z,95.82
2023-01-25T16:49:21.968Z,118.03
2023-01-25T16:51:52.013Z,61.70
2023-01-25T16:54:20.168Z,126.78
2023-01-25T16:56:48.358Z,119.38
2023-01-25T16:59:15.537Z,126.43
2023-01-25T17:01:42.601Z,135.57
2023-01-25T17:04:09.956Z,108.30
2023-01-25T17:06:39.707Z,95.40
2023-01-25T17:09:21.423Z,78.95
2023-01-25T17:11:48.700Z,95.45
2023-01-25T17:14:17.582Z,108.10
2023-01-25T17:16:45.090Z,122.90
2023-01-25T17:19:14.238Z,74.05
2023-01-25T17:21:41.357Z,86.63
2023-01-25T17:24:08.763Z,117.80
2023-01-25T17:26:35.563Z,77.53
2023-01-25T17:29:02.809Z,76.45
2023-01-25T17:31:32.490Z,93.55
2023-01-25T17:34:02.823Z,110.03
2023-01-25T17:36:29.561Z,108.90
2023-01-25T17:38:56.275Z,93.10
2023-01-25T17:41:23.017Z,128.93
2023-01-25T17:43:53.027Z,135.98
2023-01-25T17:46:25.404Z,139.48
2023-01-25T17:48:59.341Z,97.50
2023-01-25T17:51:26.335Z,107.85
2023-01-25T17:53:53.443Z,100.18
2023-01-25T17:56:20.487Z,126.90
2023-01-25T17:58:47.499Z,98.80
2023-01-25T18:01:18.140Z,120.35
2023-01-25T18:03:46.397Z,149.05
2023-01-25T18:06:16.797Z,151.23
2023-01-25T18:08:48.957Z,163.27
2023-01-25T18:11:21.343Z,118.40
2023-01-25T18:13:51.469Z,111.45
2023-01-25T18:16:22.230Z,146.90
2023-01-25T18:18:51.096Z,142.07
2023-01-25T18:21:25.150Z,137.30
2023-01-25T18:23:54.263Z,113.70
2023-01-25T18:26:26.284Z,116.40
2023-01-25T18:29:13.171Z,105.60
2023-01-25T18:31:39.926Z,110.28
2023-01-25T18:34:06.583Z,112.05
2023-01-25T18:36:33.276Z,141.18
2023-01-25T18:39:01.321Z,127.40
2023-01-25T18:41:27.964Z,155.70
2023-01-25T18:43:56.658Z,134.73
2023-01-25T18:46:23.543Z,99.72
2023-01-25T18:48:51.189Z,146.10
2023-01-25T18:51:18.027Z,132.27
2023-01-25T18:53:47.511Z,143.98
2023-01-25T18:56:20.074Z,98.45
2023-01-25T18:58:46.822Z,106.78
2023-01-25T19:01:16.742Z,120.53
2023-01-25T19:03:45.121Z,148.52
2023-01-25T19:06:12.551Z,158.60
2023-01-25T19:08:41.375Z,156.25
2023-01-25T19:11:09.866Z,132.57
2023-01-25T19:13:38.557Z,139.80
2023-01-25T19:16:08.434Z,177.85
2023-01-25T19:18:37.719Z,159.80
2023-01-25T19:21:09.054Z,128.68
2023-01-25T19:23:38.479Z,105.47
2023-01-25T19:26:06.535Z,141.77
2023-01-25T19:28:34.913Z,151.63
2023-01-25T19:31:13.815Z,125.90
2023-01-25T19:33:41.097Z,112.93
2023-01-25T19:36:12.953Z,107.65
2023-01-25T19:38:40.336Z,139.98
2023-01-25T19:41:13.002Z,137.23
2023-01-25T19:43:43.721Z,146.18
2023-01-25T19:46:25.647Z,117.85
2023-01-25T19:48:53.966Z,131.85
2023-01-25T19:51:23.215Z,137.38
2023-01-25T19:53:55.708Z,103.30
2023-01-25T19:56:22.371Z,135.10
2023-01-25T19:58:50.824Z,144.57
2023-01-25T20:01:20.193Z,112.72
2023-01-25T20:03:47.774Z,94.85
2023-01-25T20:06:18.214Z,167.27
2023-01-25T20:08:46.107Z,113.88
2023-01-25T20:11:20.077Z,122.55
2023-01-25T20:13:48.802Z,102.97
2023-01-25T20:16:19.002Z,87.82
2023-01-25T20:18:47.347Z,141.70
2023-01-25T20:21:19.832Z,116.55
2023-01-25T20:23:48.875Z,167.77
2023-01-25T20:26:21.828Z,134.45
2023-01-25T20:28:52.792Z,122.40
2023-01-25T20:31:37.952Z,101.07
2023-01-25T20:34:07.844Z,89.32
2023-01-25T20:36:35.726Z,85.05
2023-01-25T20:39:03.253Z,124.22
2023-01-25T20:41:30.429Z,120.70
2023-01-25T20:44:04.364Z,128.20
2023-01-25T20:46:33.953Z,81.40
2023-01-25T20:49:01.688Z,176.55
2023-01-25T20:51:28.440Z,125.55
2023-01-25T20:53:56.357Z,143.57
2023-01-25T20:56:23.451Z,122.38
2023-01-25T20:58:50.957Z,183.35
2023-01-25T21:01:19.355Z,129.40
2023-01-25T21:03:46.469Z,109.32
2023-01-25T21:06:13.772Z,135.45
2023-01-25T21:08:40.703Z,115.95
2023-01-25T21:11:07.919Z,114.93
2023-01-25T21:13:35.931Z,60.08
2023-01-25T21:16:05.497Z,119.68
2023-01-25T21:18:37.570Z,140.32
2023-01-25T21:21:17.058Z,102.30
2023-01-25T21:23:46.163Z,165.20
2023-01-25T21:26:18.855Z,101.63
2023-01-25T21:28:46.359Z,92.95
2023-01-25T21:31:18.614Z,103.85
2023-01-25T21:33:46.005Z,105.43
2023-01-25T21:36:16.952Z,117.68
2023-01-25T21:38:46.419Z,110.35
2023-01-25T21:41:16.165Z,64.38
2023-01-25T21:44:01.830Z,131.20
2023-01-25T21:46:29.938Z,84.63
2023-01-25T21:49:17.725Z,82.40
2023-01-25T21:51:49.418Z,126.38
2023-01-25T21:54:27.393Z,91.35
2023-01-25T21:56:56.167Z,119.43
2023-01-25T21:59:23.514Z,126.45
2023-01-25T22:01:51.433Z,125.50
2023-01-25T22:04:19.473Z,101.30
2023-01-25T22:06:48.660Z,123.90
2023-01-25T22:09:15.911Z,100.50
2023-01-25T22:11:45.734Z,95.47
2023-01-25T22:14:13.577Z,85.10
2023-01-25T22:16:40.470Z,103.15
2023-01-25T22:19:07.359Z,88.32
2023-01-25T22:21:34.008Z,101.55
2023-01-25T22:24:02.840Z,99.65
2023-01-25T22:26:57.568Z,112.60
2023-01-25T22:29:25.323Z,69.03
2023-01-25T22:31:51.969Z,87.30
2023-01-25T22:34:18.788Z,114.10
2023-01-25T22:36:45.622Z,93.20
2023-01-25T22:39:15.781Z,86.97
2023-01-25T22:41:42.680Z,86.15
2023-01-25T22:44:09.926Z,71.63
2023-01-25T22:46:37.225Z,99.60
2023-01-25T22:49:04.784Z,75.00
2023-01-25T22:51:31.705Z,80.78
2023-01-25T22:54:00.686Z,93.50
2023-01-25T22:56:32.206Z,64.72
2023-01-25T22:59:00.211Z,87.40
2023-01-25T23:01:32.972Z,70.57
2023-01-25T23:04:00.694Z,69.63
2023-01-25T23:06:34.127Z,76.60
2023-01-25T23:09:04.144Z,83.53
2023-01-25T23:11:35.362Z,72.72
2023-01-25T23:14:21.576Z,66.10
2023-01-25T23:16:48.252Z,72.80
2023-01-25T23:19:15.516Z,76.57
2023-01-25T23:21:42.339Z,53.47
2023-01-25T23:24:09.711Z,78.10
2023-01-25T23:26:45.995Z,99.93
2023-01-25T23:29:13.371Z,82.15
2023-01-25T23:31:40.048Z,73.82
2023-01-25T23:34:07.205Z,72.35
2023-01-25T23:36:38.536Z,78.22
2023-01-25T23:39:05.684Z,57.25
2023-01-25T23:41:32.395Z,65.22
2023-01-25T23:43:59.663Z,75.32
2023-01-25T23:46:28.112Z,48.33
2023-01-25T23:48:55.171Z,63.28
2023-01-25T23:51:21.802Z,62.53
2023-01-25T23:53:48.454Z,76.90
2023-01-25T23:56:18.150Z,60.63
2023-01-25T23:58:45.147Z,67.57
